Time;durP1;ratioP1;P1;durP2;ratioP2;P2;SDS_P1;SDS_P2;PMS_P1;PMS_P2;Temp;Humidity;BMP_temperature;BMP_pressure;BME280_temperature;BME280_humidity;BME280_pressure;Samples;Min_cycle;Max_cycle;Signal;HPM_P1;HPM_P2
2023/10/20 00:01:01;;;;;;;8.67;6.50;;;;;;;;;;5068744;28;20944;-56
2023/10/20 00:03:29;;;;;;;10.47;7.63;;;;;;;;;;5068924;28;20448;-55
2023/10/20 00:05:58;;;;;;;10.47;8.00;;;;;;;;;;5064825;28;20535;-55
2023/10/20 00:08:25;;;;;;;8.40;7.60;;;;;;;;;;5065933;28;20453;-55
2023/10/20 00:10:57;;;;;;;8.53;6.73;;;;;;;;;;5065692;28;20522;-55
2023/10/20 00:13:24;;;;;;;8.10;7.30;;;;;;;;;;5065264;28;20452;-54
2023/10/20 00:15:53;;;;;;;8.97;6.40;;;;;;;;;;5067576;28;20478;-55
2023/10/20 00:18:20;;;;;;;8.07;6.27;;;;;;;;;;5066918;28;20444;-56
2023/10/20 00:20:48;;;;;;;3.27;2.97;;;;;;;;;;5066872;28;20468;-55
2023/10/20 00:23:15;;;;;;;2.40;1.00;;;;;;;;;;5063770;28;20488;-55
2023/10/20 00:25:42;;;;;;;4.60;3.67;;;;;;;;;;5068374;28;20536;-55
2023/10/20 00:28:10;;;;;;;7.70;6.10;;;;;;;;;;5064044;28;20448;-55
2023/10/20 00:30:38;;;;;;;6.37;5.10;;;;;;;;;;5065444;28;21047;-55
2023/10/20 00:33:07;;;;;;;6.57;5.00;;;;;;;;;;5069254;28;20941;-54
2023/10/20 00:35:35;;;;;;;2.10;1.73;;;;;;;;;;5069969;28;20580;-55
2023/10/20 00:38:03;;;;;;;1.60;0.60;;;;;;;;;;5068663;28;20539;-56
2023/10/20 00:40:30;;;;;;;3.20;1.70;;;;;;;;;;5068100;28;20978;-55
2023/10/20 00:42:57;;;;;;;1.40;0.60;;;;;;;;;;5064840;28;21008;-55
2023/10/20 00:45:24;;;;;;;2.17;0.90;;;;;;;;;;5069652;28;21064;-55
2023/10/20 00:47:52;;;;;;;1.93;1.03;;;;;;;;;;5068588;28;20443;-55
2023/10/20 00:50:21;;;;;;;2.50;1.47;;;;;;;;;;5069537;28;21065;-55
2023/10/20 00:52:50;;;;;;;6.47;5.87;;;;;;;;;;5069475;28;20476;-55
2023/10/20 00:55:18;;;;;;;6.83;5.67;;;;;;;;;;5073386;28;20521;-55
2023/10/20 00:57:45;;;;;;;7.13;5.63;;;;;;;;;;5073598;28;20506;-56
2023/10/20 01:00:13;;;;;;;6.90;6.20;;;;;;;;;;5073482;28;20472;-54
2023/10/20 01:02:41;;;;;;;7.57;6.20;;;;;;;;;;5067425;28;20543;-55
2023/10/20 01:05:08;;;;;;;9.40;6.73;;;;;;;;;;5073606;28;20444;-56
2023/10/20 01:07:37;;;;;;;9.23;8.03;;;;;;;;;;5072281;28;20535;-55
2023/10/20 01:10:05;;;;;;;7.50;6.80;;;;;;;;;;5071906;28;21740;-55
2023/10/20 01:12:33;;;;;;;9.00;8.10;;;;;;;;;;5070501;28;20500;-57
2023/10/20 01:15:00;;;;;;;10.20;8.50;;;;;;;;;;5072258;28;20444;-55
2023/10/20 01:17:28;;;;;;;9.77;8.83;;;;;;;;;;5071202;28;20558;-54
2023/10/20 01:19:55;;;;;;;8.00;7.20;;;;;;;;;;5069328;28;20468;-56
2023/10/20 01:22:23;;;;;;;8.23;7.40;;;;;;;;;;5071704;28;20966;-56
2023/10/20 01:24:51;;;;;;;8.83;7.93;;;;;;;;;;5072940;28;20452;-55
2023/10/20 01:27:19;;;;;;;10.50;7.90;;;;;;;;;;5073467;28;20490;-54
2023/10/20 01:29:46;;;;;;;10.80;7.43;;;;;;;;;;5072483;28;20472;-55
2023/10/20 01:32:13;;;;;;;10.67;8.37;;;;;;;;;;5071374;28;20449;-54
2023/10/20 01:34:40;;;;;;;8.27;7.47;;;;;;;;;;5073068;28;20510;-55
2023/10/20 01:37:11;;;;;;;7.93;7.20;;;;;;;;;;5073053;28;21067;-56
2023/10/20 01:39:38;;;;;;;7.00;6.30;;;;;;;;;;5065894;28;20526;-55
2023/10/20 01:42:07;;;;;;;11.07;8.47;;;;;;;;;;5064141;28;20558;-56
2023/10/20 01:44:35;;;;;;;11.73;9.30;;;;;;;;;;5071902;28;20521;-55
2023/10/20 01:47:02;;;;;;;9.50;8.50;;;;;;;;;;5073006;28;20441;-55
2023/10/20 01:49:30;;;;;;;10.27;9.30;;;;;;;;;;5069489;28;20457;-54
2023/10/20 01:51:57;;;;;;;11.40;8.90;;;;;;;;;;5070278;28;20502;-55
2023/10/20 01:54:26;;;;;;;11.37;8.93;;;;;;;;;;5069983;28;20476;-54
2023/10/20 01:56:53;;;;;;;9.60;8.60;;;;;;;;;;5068233;28;20504;-55
2023/10/20 01:59:22;;;;;;;10.43;9.20;;;;;;;;;;5072432;28;20659;-55
2023/10/20 02:01:49;;;;;;;10.97;8.63;;;;;;;;;;5072022;28;20507;-55
2023/10/20 02:04:17;;;;;;;9.70;8.67;;;;;;;;;;5072773;28;20496;-55
2023/10/20 02:06:44;;;;;;;10.80;8.60;;;;;;;;;;5070239;28;20479;-57
2023/10/20 02:09:12;;;;;;;7.33;6.67;;;;;;;;;;5072100;28;20505;-55
2023/10/20 02:11:39;;;;;;;8.80;7.33;;;;;;;;;;5072101;28;21038;-55
2023/10/20 02:14:06;;;;;;;7.67;6.90;;;;;;;;;;5072243;28;20448;-56
2023/10/20 02:16:36;;;;;;;8.80;7.77;;;;;;;;;;5071960;28;20549;-56
2023/10/20 02:19:04;;;;;;;9.10;8.20;;;;;;;;;;5066983;28;20951;-56
2023/10/20 02:21:31;;;;;;;10.10;9.13;;;;;;;;;;5072141;28;20758;-54
2023/10/20 02:23:59;;;;;;;10.23;8.10;;;;;;;;;;5071862;28;20475;-55
2023/10/20 02:26:26;;;;;;;10.07;9.23;;;;;;;;;;5070895;28;20440;-56
2023/10/20 02:28:53;;;;;;;10.60;8.80;;;;;;;;;;5072443;28;20494;-55
2023/10/20 02:31:20;;;;;;;10.20;9.10;;;;;;;;;;5071779;28;20903;-54
2023/10/20 02:33:49;;;;;;;10.07;8.97;;;;;;;;;;5071124;28;20931;-56
2023/10/20 02:36:17;;;;;;;10.13;8.77;;;;;;;;;;5071496;28;20503;-55
2023/10/20 02:38:45;;;;;;;9.50;7.90;;;;;;;;;;5071678;28;20476;-57
2023/10/20 02:41:13;;;;;;;9.00;8.10;;;;;;;;;;5071496;28;20990;-55
2023/10/20 02:43:41;;;;;;;10.60;7.70;;;;;;;;;;5071323;28;20827;-55
2023/10/20 02:46:09;;;;;;;9.27;7.80;;;;;;;;;;5071776;28;20445;-55
2023/10/20 02:48:36;;;;;;;9.77;7.23;;;;;;;;;;5071912;28;20453;-55
2023/10/20 02:51:10;;;;;;;9.23;7.70;;;;;;;;;;5068663;28;20933;-55
2023/10/20 02:53:39;;;;;;;11.33;7.63;;;;;;;;;;5066758;28;20527;-56
2023/10/20 02:56:11;;;;;;;8.03;7.23;;;;;;;;;;5071671;28;20472;-55
2023/10/20 02:58:39;;;;;;;9.77;8.07;;;;;;;;;;5067500;28;20528;-54
2023/10/20 03:01:07;;;;;;;10.27;7.43;;;;;;;;;;5071322;28;20525;-55
2023/10/20 03:03:35;;;;;;;8.93;8.13;;;;;;;;;;5070936;28;20451;-56
2023/10/20 03:06:03;;;;;;;8.63;7.83;;;;;;;;;;5071106;28;21019;-55
2023/10/20 03:08:31;;;;;;;8.23;7.43;;;;;;;;;;5071190;28;20448;-56
2023/10/20 03:10:59;;;;;;;9.53;7.07;;;;;;;;;;5070601;28;20464;-55
2023/10/20 03:13:26;;;;;;;8.23;6.97;;;;;;;;;;5070689;28;20506;-56
2023/10/20 03:15:54;;;;;;;7.70;6.87;;;;;;;;;;5066384;28;20535;-56
2023/10/20 03:18:23;;;;;;;8.60;7.80;;;;;;;;;;5070542;28;20892;-55
2023/10/20 03:20:50;;;;;;;8.70;7.43;;;;;;;;;;5070688;28;20475;-56
2023/10/20 03:23:18;;;;;;;9.33;7.70;;;;;;;;;;5070433;28;20844;-55
2023/10/20 03:25:47;;;;;;;9.20;7.00;;;;;;;;;;5070710;28;20847;-54
2023/10/20 03:28:14;;;;;;;8.10;7.00;;;;;;;;;;5066889;28;21021;-55
2023/10/20 03:30:42;;;;;;;8.00;7.20;;;;;;;;;;5065970;28;20945;-55
2023/10/20 03:33:10;;;;;;;8.50;7.40;;;;;;;;;;5069036;28;20472;-54
2023/10/20 03:35:37;;;;;;;7.30;6.60;;;;;;;;;;5069916;28;20448;-55
2023/10/20 03:38:05;;;;;;;9.23;7.67;;;;;;;;;;5070977;28;20520;-55
2023/10/20 03:40:36;;;;;;;10.17;6.97;;;;;;;;;;5064297;28;20515;-55
2023/10/20 03:43:05;;;;;;;7.47;6.40;;;;;;;;;;5067367;28;20459;-57
2023/10/20 03:45:40;;;;;;;7.97;6.07;;;;;;;;;;5070716;28;20484;-55
2023/10/20 03:48:08;;;;;;;6.87;6.27;;;;;;;;;;5069158;28;20494;-56
2023/10/20 03:50:37;;;;;;;7.50;6.80;;;;;;;;;;5065964;28;20903;-56
2023/10/20 03:53:04;;;;;;;7.27;6.50;;;;;;;;;;5070383;28;20735;-55
2023/10/20 03:55:33;;;;;;;6.17;5.57;;;;;;;;;;5068639;28;20445;-55
2023/10/20 03:58:01;;;;;;;7.00;5.50;;;;;;;;;;5070193;28;20472;-55
2023/10/20 04:00:31;;;;;;;7.57;6.67;;;;;;;;;;5065696;28;21044;-56
2023/10/20 04:02:59;;;;;;;6.90;6.17;;;;;;;;;;5066021;28;20881;-55
2023/10/20 04:05:26;;;;;;;5.27;4.77;;;;;;;;;;5068514;28;20457;-54
2023/10/20 04:07:54;;;;;;;4.83;2.20;;;;;;;;;;5068115;28;20445;-54
2023/10/20 04:10:22;;;;;;;1.80;1.10;;;;;;;;;;5065534;28;20861;-55
2023/10/20 04:12:49;;;;;;;5.90;5.03;;;;;;;;;;5064663;28;20445;-56
2023/10/20 04:15:19;;;;;;;6.50;5.07;;;;;;;;;;5070570;28;20444;-55
2023/10/20 04:17:51;;;;;;;5.50;5.00;;;;;;;;;;5066002;28;20483;-55
2023/10/20 04:20:19;;;;;;;6.30;4.37;;;;;;;;;;5070325;28;20460;-55
2023/10/20 04:22:50;;;;;;;5.10;1.87;;;;;;;;;;5069499;28;20506;-55
2023/10/20 04:25:18;;;;;;;7.40;6.00;;;;;;;;;;5069704;28;20444;-55
2023/10/20 04:27:49;;;;;;;7.53;6.63;;;;;;;;;;5070578;28;20835;-55
2023/10/20 04:55:46;;;;;;;11.40;8.40;;;;;;;;;;5066740;28;20594;-55
2023/10/20 04:57:52;;;;;;;10.63;9.30;;;;;;;;;;5066124;28;20483;-54
2023/10/20 05:00:40;;;;;;;11.33;7.90;;;;;;;;;;5066723;28;20476;-54
2023/10/20 05:03:22;;;;;;;10.00;7.93;;;;;;;;;;5065748;28;20951;-55
2023/10/20 05:05:58;;;;;;;8.80;7.90;;;;;;;;;;5064974;28;20465;-55
2023/10/20 05:08:27;;;;;;;10.00;8.10;;;;;;;;;;5057838;28;20433;-56
2023/10/20 05:10:55;;;;;;;10.43;7.80;;;;;;;;;;5061865;28;20536;-55
2023/10/20 05:13:23;;;;;;;9.07;7.73;;;;;;;;;;5065203;28;20449;-55
2023/10/20 05:15:50;;;;;;;9.67;8.67;;;;;;;;;;5066195;28;20468;-55
2023/10/20 05:18:18;;;;;;;9.57;8.67;;;;;;;;;;5062384;28;20484;-56
2023/10/20 05:20:46;;;;;;;9.93;8.33;;;;;;;;;;5058774;28;20488;-55
2023/10/20 05:23:15;;;;;;;10.07;9.17;;;;;;;;;;5059243;28;20531;-55
2023/10/20 05:25:49;;;;;;;8.80;7.77;;;;;;;;;;5058229;28;20543;-55
2023/10/20 05:28:19;;;;;;;16.07;10.23;;;;;;;;;;5060757;28;20436;-56
2023/10/20 05:30:47;;;;;;;11.53;10.43;;;;;;;;;;5060858;28;20461;-55
2023/10/20 05:33:15;;;;;;;10.00;9.00;;;;;;;;;;5064120;28;20510;-55
2023/10/20 05:35:43;;;;;;;13.67;8.53;;;;;;;;;;5059688;28;20471;-56
2023/10/20 05:38:10;;;;;;;14.30;9.30;;;;;;;;;;5070789;28;20475;-56
2023/10/20 05:40:39;;;;;;;10.67;9.67;;;;;;;;;;5086306;23;20625;-58
2023/10/20 05:43:06;;;;;;;10.50;9.37;;;;;;;;;;5068409;28;20471;-58
2023/10/20 05:45:40;;;;;;;9.73;8.70;;;;;;;;;;5071752;28;20506;-58
2023/10/20 05:48:08;;;;;;;12.27;10.30;;;;;;;;;;5071587;28;21025;-57
2023/10/20 05:50:36;;;;;;;12.27;11.07;;;;;;;;;;5069048;28;20468;-58
2023/10/20 05:53:04;;;;;;;10.43;9.37;;;;;;;;;;5066211;28;20927;-58
2023/10/20 05:55:32;;;;;;;8.87;8.07;;;;;;;;;;5072005;28;20437;-58
2023/10/20 05:58:01;;;;;;;5.70;4.40;;;;;;;;;;5072051;28;20476;-58
2023/10/20 06:00:29;;;;;;;8.40;7.60;;;;;;;;;;5067064;28;20478;-57
2023/10/20 06:02:56;;;;;;;9.23;8.20;;;;;;;;;;5066308;28;20486;-58
2023/10/20 06:05:23;;;;;;;10.23;7.73;;;;;;;;;;5068557;28;20463;-57
2023/10/20 06:07:51;;;;;;;9.40;7.93;;;;;;;;;;5070635;28;20442;-57
2023/10/20 06:10:23;;;;;;;12.20;8.63;;;;;;;;;;5071516;28;20518;-58
2023/10/20 06:12:51;;;;;;;5.20;4.50;;;;;;;;;;5070782;28;20479;-59
2023/10/20 06:15:20;;;;;;;2.60;2.07;;;;;;;;;;5071820;28;20480;-58
2023/10/20 06:17:47;;;;;;;3.20;1.80;;;;;;;;;;5069630;28;20538;-57
2023/10/20 06:20:15;;;;;;;1.50;0.87;;;;;;;;;;5072330;28;20468;-57
2023/10/20 06:22:42;;;;;;;1.87;1.20;;;;;;;;;;5068882;28;20510;-57
2023/10/20 06:25:13;;;;;;;2.03;0.80;;;;;;;;;;5072423;28;20449;-58
2023/10/20 06:27:44;;;;;;;1.90;0.80;;;;;;;;;;5072396;28;20433;-56
2023/10/20 06:30:19;;;;;;;1.70;0.77;;;;;;;;;;5070190;28;20853;-57
2023/10/20 06:32:56;;;;;;;1.40;0.50;;;;;;;;;;5068592;28;20458;-58
2023/10/20 06:35:32;;;;;;;1.40;0.50;;;;;;;;;;5070562;28;20443;-58
2023/10/20 06:38:11;;;;;;;1.43;0.57;;;;;;;;;;5068478;28;20472;-58
2023/10/20 06:40:38;;;;;;;1.30;0.50;;;;;;;;;;5060740;28;20480;-57
2023/10/20 06:43:06;;;;;;;1.40;0.60;;;;;;;;;;5070799;28;20449;-58
2023/10/20 06:45:34;;;;;;;1.80;0.87;;;;;;;;;;5069627;28;20444;-57
2023/10/20 06:48:02;;;;;;;1.40;0.70;;;;;;;;;;5068723;28;20437;-57
2023/10/20 06:50:29;;;;;;;1.40;0.50;;;;;;;;;;5071660;28;20472;-59
2023/10/20 06:52:57;;;;;;;1.70;0.60;;;;;;;;;;5070382;28;20809;-57
2023/10/20 06:55:24;;;;;;;1.70;0.90;;;;;;;;;;5071687;28;20923;-57
2023/10/20 06:57:51;;;;;;;1.40;0.60;;;;;;;;;;5071998;28;20480;-57
2023/10/20 07:00:20;;;;;;;1.40;0.40;;;;;;;;;;5071456;28;20522;-57
2023/10/20 07:02:48;;;;;;;2.47;1.40;;;;;;;;;;5071429;28;20821;-57
2023/10/20 07:05:18;;;;;;;1.60;0.67;;;;;;;;;;5068987;28;20927;-57
2023/10/20 07:07:45;;;;;;;1.40;0.50;;;;;;;;;;5069704;28;20490;-60
2023/10/20 07:10:12;;;;;;;2.40;1.87;;;;;;;;;;5062470;28;20541;-58
2023/10/20 07:12:40;;;;;;;1.63;0.87;;;;;;;;;;5072895;28;20505;-57
2023/10/20 07:15:07;;;;;;;1.80;0.60;;;;;;;;;;5074678;28;20548;-57
2023/10/20 07:17:35;;;;;;;1.80;0.80;;;;;;;;;;5066498;28;20476;-57
2023/10/20 07:20:05;;;;;;;1.97;1.10;;;;;;;;;;5071400;28;20586;-57
2023/10/20 07:22:34;;;;;;;3.27;1.80;;;;;;;;;;5073051;28;21038;-56
2023/10/20 07:25:02;;;;;;;2.67;1.00;;;;;;;;;;5071477;28;20486;-58
2023/10/20 07:27:31;;;;;;;1.87;0.70;;;;;;;;;;5068830;28;20476;-57
2023/10/20 07:29:58;;;;;;;2.93;0.90;;;;;;;;;;5071032;28;20460;-57
2023/10/20 07:32:25;;;;;;;1.70;1.00;;;;;;;;;;5071057;28;20509;-56
2023/10/20 07:34:52;;;;;;;2.00;0.70;;;;;;;;;;5072348;28;20440;-57
2023/10/20 07:37:20;;;;;;;2.27;1.10;;;;;;;;;;5071077;28;20437;-58
2023/10/20 07:39:50;;;;;;;3.10;1.40;;;;;;;;;;5070616;28;20464;-58
2023/10/20 07:42:19;;;;;;;1.93;1.10;;;;;;;;;;5071456;28;20444;-57
2023/10/20 07:44:46;;;;;;;4.50;1.00;;;;;;;;;;5065324;28;20444;-57
2023/10/20 07:47:14;;;;;;;1.67;0.77;;;;;;;;;;5069138;28;20513;-58
2023/10/20 07:49:41;;;;;;;3.77;0.70;;;;;;;;;;5067877;28;20935;-57
2023/10/20 07:52:08;;;;;;;1.87;1.07;;;;;;;;;;5075254;28;20437;-58
2023/10/20 07:54:36;;;;;;;1.60;0.90;;;;;;;;;;5067081;28;20432;-57
2023/10/20 07:57:05;;;;;;;1.70;0.80;;;;;;;;;;5070375;28;20569;-57
2023/10/20 07:59:32;;;;;;;1.60;0.70;;;;;;;;;;5066805;28;20484;-57
2023/10/20 08:01:59;;;;;;;1.83;0.90;;;;;;;;;;5066584;28;20484;-57
2023/10/20 08:04:27;;;;;;;2.10;0.73;;;;;;;;;;5069353;28;20444;-58
2023/10/20 08:06:58;;;;;;;2.40;0.97;;;;;;;;;;5070418;28;20451;-57
2023/10/20 08:09:26;;;;;;;2.10;0.97;;;;;;;;;;5070585;28;20467;-57
2023/10/20 08:11:53;;;;;;;2.90;1.20;;;;;;;;;;5069941;28;20448;-59
2023/10/20 08:14:22;;;;;;;2.00;0.70;;;;;;;;;;5067130;28;20436;-58
2023/10/20 08:16:50;;;;;;;2.00;0.80;;;;;;;;;;5068779;28;20453;-58
2023/10/20 08:19:17;;;;;;;1.87;0.87;;;;;;;;;;5069632;28;20559;-57
2023/10/20 08:21:44;;;;;;;3.40;0.60;;;;;;;;;;5068279;28;20460;-58
2023/10/20 08:24:12;;;;;;;5.20;0.97;;;;;;;;;;5065836;28;20437;-58
2023/10/20 08:26:39;;;;;;;2.20;0.83;;;;;;;;;;5069602;28;20933;-58
2023/10/20 08:29:11;;;;;;;3.73;0.70;;;;;;;;;;5066089;28;20511;-58
2023/10/20 08:31:39;;;;;;;4.13;0.77;;;;;;;;;;5058579;28;20467;-57
2023/10/20 08:34:07;;;;;;;4.70;2.50;;;;;;;;;;5060303;28;20502;-58
2023/10/20 08:36:34;;;;;;;4.17;1.80;;;;;;;;;;5059689;28;21099;-57
2023/10/20 08:39:12;;;;;;;8.80;4.80;;;;;;;;;;5059206;28;20469;-57
2023/10/20 08:41:41;;;;;;;4.13;0.90;;;;;;;;;;5068845;28;21016;-57
2023/10/20 08:44:09;;;;;;;2.97;0.80;;;;;;;;;;5069641;28;20440;-59
2023/10/20 08:46:37;;;;;;;3.70;1.07;;;;;;;;;;5070403;28;20506;-57
2023/10/20 08:49:07;;;;;;;1.73;0.97;;;;;;;;;;5069991;28;20440;-58
2023/10/20 08:51:34;;;;;;;2.90;0.70;;;;;;;;;;5069582;28;20526;-56
2023/10/20 08:54:02;;;;;;;1.90;0.70;;;;;;;;;;5069858;28;20444;-58
2023/10/20 08:56:30;;;;;;;1.90;0.83;;;;;;;;;;5069953;28;20448;-58
2023/10/20 08:58:57;;;;;;;1.70;0.57;;;;;;;;;;5069999;28;20545;-57
2023/10/20 09:01:24;;;;;;;1.40;0.60;;;;;;;;;;5069461;28;20919;-57
2023/10/20 09:03:54;;;;;;;2.33;0.90;;;;;;;;;;5070080;28;21013;-59
2023/10/20 09:06:25;;;;;;;1.50;0.63;;;;;;;;;;5069887;28;20526;-59
2023/10/20 09:08:53;;;;;;;2.43;0.60;;;;;;;;;;5071067;28;20446;-58
2023/10/20 09:11:25;;;;;;;2.10;0.60;;;;;;;;;;5073670;28;20496;-58
2023/10/20 09:13:53;;;;;;;2.33;0.70;;;;;;;;;;5073414;28;20586;-57
2023/10/20 09:16:20;;;;;;;1.80;0.70;;;;;;;;;;5073519;28;20815;-58
2023/10/20 09:18:48;;;;;;;1.97;0.83;;;;;;;;;;5073130;28;21002;-58
2023/10/20 09:21:16;;;;;;;2.80;0.60;;;;;;;;;;5073519;28;20464;-57
2023/10/20 09:23:55;;;;;;;1.63;0.70;;;;;;;;;;5073249;28;20502;-58
2023/10/20 09:26:22;;;;;;;1.43;0.60;;;;;;;;;;5073363;28;20436;-58
2023/10/20 09:28:50;;;;;;;1.70;0.60;;;;;;;;;;5073195;28;20845;-57
2023/10/20 09:31:18;;;;;;;2.70;0.70;;;;;;;;;;5073421;28;20958;-59
2023/10/20 09:33:45;;;;;;;4.27;0.67;;;;;;;;;;5069922;28;20513;-57
2023/10/20 09:36:12;;;;;;;3.17;0.80;;;;;;;;;;5073235;28;20470;-58
2023/10/20 09:38:40;;;;;;;1.93;0.60;;;;;;;;;;5071233;28;21047;-58
2023/10/20 09:41:12;;;;;;;2.23;0.70;;;;;;;;;;5062514;28;20464;-59
2023/10/20 09:43:45;;;;;;;1.40;0.40;;;;;;;;;;5065681;28;20962;-57
2023/10/20 09:46:16;;;;;;;2.63;0.80;;;;;;;;;;5065026;28;20459;-57
2023/10/20 09:48:44;;;;;;;2.10;0.73;;;;;;;;;;5062975;28;20527;-57
2023/10/20 09:51:12;;;;;;;2.20;0.70;;;;;;;;;;5064628;28;20510;-57
2023/10/20 09:53:40;;;;;;;1.50;0.60;;;;;;;;;;5068834;28;20452;-57
2023/10/20 09:56:08;;;;;;;1.53;0.50;;;;;;;;;;5072536;28;20805;-57
2023/10/20 09:58:38;;;;;;;5.40;0.63;;;;;;;;;;5072678;28;20513;-57
2023/10/20 10:01:07;;;;;;;2.00;0.40;;;;;;;;;;5072503;28;20878;-57
2023/10/20 10:03:37;;;;;;;2.60;0.60;;;;;;;;;;5072706;28;20453;-57
2023/10/20 10:06:10;;;;;;;1.90;0.70;;;;;;;;;;5072777;28;20444;-58
2023/10/20 10:08:39;;;;;;;1.77;0.30;;;;;;;;;;5072318;28;20527;-59
2023/10/20 10:11:19;;;;;;;1.40;0.40;;;;;;;;;;5060470;28;20456;-57
2023/10/20 10:13:53;;;;;;;2.33;0.47;;;;;;;;;;5063356;28;20493;-58
2023/10/20 10:16:21;;;;;;;1.40;0.40;;;;;;;;;;5062412;28;20435;-57
2023/10/20 10:18:48;;;;;;;1.60;0.47;;;;;;;;;;5060054;28;20571;-59
2023/10/20 10:21:25;;;;;;;1.27;0.30;;;;;;;;;;5058307;28;20462;-58
2023/10/20 10:24:09;;;;;;;1.93;0.57;;;;;;;;;;5058272;28;20514;-58
2023/10/20 10:26:45;;;;;;;1.37;0.37;;;;;;;;;;5059413;28;20451;-58
2023/10/20 10:29:14;;;;;;;1.73;0.40;;;;;;;;;;5058480;28;20459;-58
2023/10/20 10:31:41;;;;;;;1.67;0.40;;;;;;;;;;5059492;28;20819;-58
2023/10/20 10:34:09;;;;;;;1.83;0.50;;;;;;;;;;5058253;28;20533;-59
2023/10/20 10:36:43;;;;;;;1.40;0.43;;;;;;;;;;5059383;28;20444;-58
2023/10/20 10:39:21;;;;;;;1.40;0.50;;;;;;;;;;5063314;28;20469;-58
2023/10/20 10:41:48;;;;;;;2.57;0.40;;;;;;;;;;5061591;28;20869;-60
2023/10/20 10:44:18;;;;;;;1.40;0.40;;;;;;;;;;5062968;28;20920;-58
2023/10/20 10:46:47;;;;;;;1.40;0.40;;;;;;;;;;5060324;28;20453;-58
2023/10/20 10:49:14;;;;;;;2.00;0.60;;;;;;;;;;5063043;28;20515;-58
2023/10/20 10:51:46;;;;;;;1.50;0.40;;;;;;;;;;5066508;28;20539;-58
2023/10/20 10:54:13;;;;;;;1.30;0.40;;;;;;;;;;5069739;28;20444;-58
2023/10/20 10:56:42;;;;;;;2.53;0.50;;;;;;;;;;5071326;28;20443;-58
2023/10/20 10:59:10;;;;;;;1.40;0.40;;;;;;;;;;5071451;28;20840;-58
2023/10/20 11:01:39;;;;;;;2.23;0.80;;;;;;;;;;5070166;28;20540;-58
2023/10/20 11:04:08;;;;;;;1.40;0.40;;;;;;;;;;5071452;28;20527;-58
2023/10/20 11:06:37;;;;;;;2.10;0.50;;;;;;;;;;5070129;28;20440;-59
2023/10/20 11:09:07;;;;;;;2.73;0.90;;;;;;;;;;5070004;28;20990;-59
2023/10/20 11:11:39;;;;;;;3.00;0.60;;;;;;;;;;5071275;28;20542;-58
2023/10/20 11:14:07;;;;;;;1.90;0.70;;;;;;;;;;5070774;28;20524;-58
2023/10/20 11:16:36;;;;;;;3.07;0.77;;;;;;;;;;5071264;28;20482;-58
2023/10/20 11:19:05;;;;;;;3.20;0.60;;;;;;;;;;5070764;28;20483;-58
2023/10/20 11:21:43;;;;;;;2.00;0.60;;;;;;;;;;5070858;28;20465;-58
2023/10/20 11:24:10;;;;;;;3.43;0.90;;;;;;;;;;5070853;28;20498;-58
2023/10/20 11:26:38;;;;;;;2.07;0.57;;;;;;;;;;5071096;28;20498;-58
2023/10/20 11:29:08;;;;;;;2.40;0.67;;;;;;;;;;5071245;28;20502;-58
2023/10/20 11:31:37;;;;;;;2.67;0.60;;;;;;;;;;5068671;28;21013;-58
2023/10/20 11:34:05;;;;;;;4.33;0.80;;;;;;;;;;5067049;28;20958;-57
2023/10/20 11:36:34;;;;;;;3.20;1.50;;;;;;;;;;5069410;28;20509;-56
2023/10/20 11:39:01;;;;;;;3.03;1.03;;;;;;;;;;5070316;28;20921;-58
2023/10/20 11:41:28;;;;;;;3.77;0.50;;;;;;;;;;5087346;22;20492;-91
2023/10/20 11:43:55;;;;;;;1.47;0.47;;;;;;;;;;5088241;28;20522;-90
2023/10/20 11:46:23;;;;;;;3.83;1.20;;;;;;;;;;5070282;28;20461;-90
2023/10/20 11:48:50;;;;;;;2.50;0.60;;;;;;;;;;5071078;28;20444;-90
2023/10/20 11:51:19;;;;;;;1.63;0.40;;;;;;;;;;5070701;28;20494;-90
2023/10/20 11:53:46;;;;;;;2.10;0.50;;;;;;;;;;5071060;28;20436;-91
2023/10/20 11:56:13;;;;;;;2.37;0.60;;;;;;;;;;5071842;28;20456;-90
2023/10/20 11:58:40;;;;;;;2.43;0.53;;;;;;;;;;5071572;28;20460;-91
2023/10/20 12:01:08;;;;;;;3.27;0.63;;;;;;;;;;5069057;28;20452;-90
2023/10/20 12:03:35;;;;;;;4.33;0.43;;;;;;;;;;5070137;28;20856;-90
2023/10/20 12:06:02;;;;;;;8.57;1.07;;;;;;;;;;5071141;28;20843;-91
2023/10/20 12:08:32;;;;;;;2.70;0.50;;;;;;;;;;5070789;28;20484;-90
2023/10/20 12:11:00;;;;;;;4.03;0.50;;;;;;;;;;5070713;28;21020;-91
2023/10/20 12:13:28;;;;;;;2.43;0.50;;;;;;;;;;5070531;28;20444;-91
2023/10/20 12:15:55;;;;;;;1.57;0.60;;;;;;;;;;5071222;28;20518;-91
2023/10/20 12:18:22;;;;;;;1.50;0.70;;;;;;;;;;5071040;28;20448;-91
2023/10/20 12:20:50;;;;;;;2.00;0.50;;;;;;;;;;5070901;28;20504;-90
2023/10/20 12:23:17;;;;;;;1.30;0.30;;;;;;;;;;5070731;28;20966;-90
2023/10/20 12:25:46;;;;;;;1.67;0.50;;;;;;;;;;5071182;28;20465;-90
2023/10/20 12:28:13;;;;;;;1.77;0.33;;;;;;;;;;5068330;28;20444;-90
2023/10/20 12:30:40;;;;;;;1.87;0.40;;;;;;;;;;5070920;28;20448;-90
2023/10/20 12:33:08;;;;;;;1.90;0.40;;;;;;;;;;5070869;28;20448;-90
2023/10/20 12:35:35;;;;;;;1.43;0.50;;;;;;;;;;5071084;28;20468;-90
2023/10/20 12:38:03;;;;;;;1.30;0.30;;;;;;;;;;5070849;28;20445;-91
2023/10/20 12:40:31;;;;;;;2.23;0.50;;;;;;;;;;5070410;28;20847;-90
2023/10/20 12:42:59;;;;;;;1.67;0.40;;;;;;;;;;5070764;28;20985;-90
2023/10/20 12:45:28;;;;;;;1.40;0.40;;;;;;;;;;5075051;28;20472;-90
2023/10/20 12:47:55;;;;;;;1.30;0.30;;;;;;;;;;5074913;28;20523;-90
2023/10/20 12:50:22;;;;;;;1.93;0.50;;;;;;;;;;5085496;28;20459;-90
2023/10/20 12:52:50;;;;;;;1.70;0.60;;;;;;;;;;5080364;28;20486;-91
2023/10/20 12:55:17;;;;;;;1.80;0.57;;;;;;;;;;5075648;28;20464;-90
2023/10/20 12:57:44;;;;;;;1.40;0.30;;;;;;;;;;5075044;28;20421;-90
2023/10/20 13:00:15;;;;;;;1.93;0.57;;;;;;;;;;5074930;28;21043;-91
2023/10/20 13:02:45;;;;;;;1.97;0.43;;;;;;;;;;5074451;28;20447;-90
2023/10/20 13:05:12;;;;;;;2.17;0.60;;;;;;;;;;5073044;28;20467;-90
2023/10/20 13:07:40;;;;;;;1.80;0.50;;;;;;;;;;5074244;28;20440;-90
2023/10/20 13:10:08;;;;;;;3.40;0.60;;;;;;;;;;5073776;28;20444;-90
2023/10/20 13:12:35;;;;;;;2.23;0.40;;;;;;;;;;5073936;28;21552;-90
2023/10/20 13:15:02;;;;;;;1.43;0.43;;;;;;;;;;5072929;28;20509;-90
2023/10/20 13:17:33;;;;;;;1.50;0.40;;;;;;;;;;5073097;28;20973;-90
2023/10/20 13:20:01;;;;;;;2.33;0.43;;;;;;;;;;5073354;28;20562;-91
2023/10/20 13:22:29;;;;;;;2.03;0.43;;;;;;;;;;5073989;28;20881;-90
2023/10/20 13:24:56;;;;;;;2.00;0.70;;;;;;;;;;5071588;28;20464;-90
2023/10/20 13:27:24;;;;;;;3.83;0.53;;;;;;;;;;5073508;28;20445;-90
2023/10/20 13:29:51;;;;;;;1.97;0.63;;;;;;;;;;5073987;28;20495;-90
2023/10/20 13:32:18;;;;;;;2.57;0.40;;;;;;;;;;5074054;28;20483;-90
2023/10/20 13:34:48;;;;;;;2.53;0.70;;;;;;;;;;5074280;28;20456;-90
2023/10/20 13:37:15;;;;;;;3.10;0.83;;;;;;;;;;5074330;28;20452;-90
2023/10/20 13:39:42;;;;;;;2.43;0.60;;;;;;;;;;5073847;28;20476;-89
2023/10/20 13:42:10;;;;;;;2.10;0.67;;;;;;;;;;5073811;28;20453;-90
2023/10/20 13:44:37;;;;;;;1.30;0.40;;;;;;;;;;5073851;28;20479;-90
2023/10/20 13:47:05;;;;;;;1.80;0.60;;;;;;;;;;5073870;28;20448;-90
2023/10/20 13:49:32;;;;;;;2.20;0.57;;;;;;;;;;5074265;28;20605;-90
2023/10/20 13:52:01;;;;;;;1.97;0.50;;;;;;;;;;5073960;28;20444;-90
2023/10/20 13:54:28;;;;;;;1.57;0.57;;;;;;;;;;5074195;28;20468;-90
2023/10/20 13:56:55;;;;;;;2.20;0.93;;;;;;;;;;5072672;28;20444;-90
2023/10/20 13:59:23;;;;;;;2.13;0.50;;;;;;;;;;5073172;28;20444;-89
2023/10/20 14:01:50;;;;;;;1.70;0.50;;;;;;;;;;5073680;28;20448;-90
2023/10/20 14:04:18;;;;;;;2.10;0.53;;;;;;;;;;5073394;28;20553;-90
2023/10/20 14:06:45;;;;;;;1.60;0.80;;;;;;;;;;5070193;28;20476;-90
2023/10/20 14:09:14;;;;;;;1.30;0.40;;;;;;;;;;5070197;28;20527;-90
2023/10/20 14:11:41;;;;;;;2.47;0.70;;;;;;;;;;5074441;28;21068;-90
2023/10/20 14:14:09;;;;;;;1.97;0.60;;;;;;;;;;5075202;28;20433;-90
2023/10/20 14:16:37;;;;;;;1.80;0.40;;;;;;;;;;5072164;28;20440;-90
2023/10/20 14:19:04;;;;;;;2.03;0.50;;;;;;;;;;5073562;28;20485;-90
2023/10/20 14:21:32;;;;;;;1.93;0.60;;;;;;;;;;5074988;28;20482;-90
2023/10/20 14:23:59;;;;;;;1.70;0.40;;;;;;;;;;5085051;28;20428;-91
2023/10/20 14:26:28;;;;;;;2.53;0.90;;;;;;;;;;5074808;28;20429;-90
2023/10/20 14:28:55;;;;;;;1.60;0.60;;;;;;;;;;5072137;28;20959;-90
2023/10/20 14:31:23;;;;;;;1.87;0.53;;;;;;;;;;5075197;28;20521;-90
2023/10/20 14:33:50;;;;;;;3.27;1.00;;;;;;;;;;5073305;28;20474;-90
2023/10/20 14:36:18;;;;;;;1.60;0.40;;;;;;;;;;5073472;28;20468;-90
2023/10/20 14:38:46;;;;;;;1.50;0.73;;;;;;;;;;5073614;28;20456;-90
2023/10/20 14:41:13;;;;;;;1.70;0.70;;;;;;;;;;5069834;28;20569;-90
2023/10/20 14:43:42;;;;;;;2.03;0.60;;;;;;;;;;5073172;28;20440;-90
2023/10/20 14:46:10;;;;;;;1.40;0.50;;;;;;;;;;5073492;28;20518;-90
2023/10/20 14:48:37;;;;;;;1.50;0.50;;;;;;;;;;5072879;28;20535;-90
2023/10/20 14:51:08;;;;;;;5.30;0.70;;;;;;;;;;5073167;28;20953;-90
2023/10/20 14:53:35;;;;;;;2.37;0.60;;;;;;;;;;5073689;28;20451;-90
2023/10/20 14:56:03;;;;;;;2.30;0.70;;;;;;;;;;5073065;28;20505;-90
2023/10/20 14:58:31;;;;;;;2.77;1.03;;;;;;;;;;5073860;28;20441;-90
2023/10/20 15:01:00;;;;;;;3.10;0.60;;;;;;;;;;5073180;28;20879;-90
2023/10/20 15:03:29;;;;;;;1.40;0.50;;;;;;;;;;5073462;28;20452;-90
2023/10/20 15:05:57;;;;;;;1.77;0.60;;;;;;;;;;5073558;28;20531;-90
2023/10/20 15:08:24;;;;;;;2.10;0.77;;;;;;;;;;5073315;28;20994;-90
2023/10/20 15:10:52;;;;;;;1.70;0.63;;;;;;;;;;5072943;28;20498;-90
2023/10/20 15:13:20;;;;;;;1.93;0.60;;;;;;;;;;5072790;28;20819;-90